createdAt,value
2022-12-31T00:01:43.526Z,2.60
2022-12-31T00:04:09.998Z,1.33
2022-12-31T00:06:36.787Z,3.83
2022-12-31T00:09:05.949Z,1.58
2022-12-31T00:11:34.853Z,1.55
2022-12-31T00:14:01.540Z,1.27
2022-12-31T00:16:31.525Z,2.30
2022-12-31T00:18:59.770Z,1.55
2022-12-31T00:21:28.147Z,4.60
2022-12-31T00:23:54.654Z,2.88
2022-12-31T00:26:24.830Z,1.60
2022-12-31T00:28:52.880Z,4.20
2022-12-31T00:31:25.651Z,2.50
2022-12-31T00:33:52.617Z,0.75
2022-12-31T00:36:22.546Z,1.23
2022-12-31T00:38:51.019Z,1.67
2022-12-31T00:41:19.092Z,0.90
2022-12-31T00:43:45.909Z,1.55
2022-12-31T00:46:13.329Z,0.45
2022-12-31T00:48:40.096Z,1.20
2022-12-31T00:51:09.043Z,2.05
2022-12-31T00:53:35.550Z,0.90
2022-12-31T00:56:02.903Z,2.08
2022-12-31T00:58:29.273Z,0.90
2022-12-31T01:00:55.870Z,0.80
2022-12-31T01:03:22.533Z,0.57
2022-12-31T01:05:50.298Z,0.37
2022-12-31T01:08:17.937Z,1.67
2022-12-31T01:11:07.744Z,1.45
2022-12-31T01:13:34.487Z,1.38
2022-12-31T01:16:10.799Z,0.95
2022-12-31T01:18:38.067Z,2.13
2022-12-31T01:21:07.506Z,0.85
2022-12-31T01:23:34.475Z,1.13
2022-12-31T01:26:02.437Z,1.67
2022-12-31T01:28:28.869Z,0.60
2022-12-31T01:30:55.480Z,1.87
2022-12-31T01:33:22.429Z,2.50
2022-12-31T01:35:49.232Z,1.52
2022-12-31T01:38:15.787Z,3.70
2022-12-31T01:40:42.607Z,1.85
2022-12-31T01:43:18.357Z,3.70
2022-12-31T01:45:48.201Z,3.95
2022-12-31T01:48:19.707Z,4.05
2022-12-31T01:50:47.310Z,2.30
2022-12-31T01:53:15.021Z,2.10
2022-12-31T01:55:52.545Z,2.40
2022-12-31T01:58:25.500Z,1.05
2022-12-31T02:00:53.164Z,3.90
2022-12-31T02:03:23.014Z,3.20
2022-12-31T02:06:05.201Z,3.90
2022-12-31T02:08:35.735Z,2.80
2022-12-31T02:11:34.361Z,3.55
2022-12-31T02:14:06.859Z,1.98
2022-12-31T02:17:04.055Z,1.08
2022-12-31T02:19:50.656Z,4.63
2022-12-31T02:22:29.205Z,1.13
2022-12-31T02:25:23.489Z,1.00
2022-12-31T02:28:09.813Z,3.15
2022-12-31T02:30:37.424Z,2.85
2022-12-31T02:33:11.529Z,0.90
2022-12-31T02:35:53.883Z,2.23
2022-12-31T02:38:32.186Z,1.00
2022-12-31T02:40:59.262Z,2.30
2022-12-31T02:43:26.250Z,2.80
2022-12-31T02:46:18.364Z,3.20
2022-12-31T02:48:56.044Z,2.10
2022-12-31T02:51:43.089Z,3.47
2022-12-31T02:54:12.468Z,3.67
2022-12-31T02:56:41.874Z,1.02
2022-12-31T02:59:42.209Z,3.58
2022-12-31T03:02:15.869Z,0.60
2022-12-31T03:04:47.481Z,0.40
2022-12-31T03:07:18.527Z,3.05
2022-12-31T03:09:44.860Z,1.40
2022-12-31T03:12:31.252Z,1.55
2022-12-31T03:14:58.140Z,2.17
2022-12-31T03:17:24.940Z,1.85
2022-12-31T03:20:10.264Z,4.05
2022-12-31T03:22:40.686Z,1.02
2022-12-31T03:25:32.036Z,2.80
2022-12-31T03:27:59.532Z,3.00
2022-12-31T03:30:26.857Z,2.70
2022-12-31T03:32:54.057Z,1.88
2022-12-31T03:35:21.213Z,1.75
2022-12-31T03:37:48.957Z,3.25
2022-12-31T03:40:16.766Z,6.03
2022-12-31T03:42:43.274Z,3.15
2022-12-31T03:45:11.981Z,2.55
2022-12-31T03:47:38.850Z,1.25
2022-12-31T03:50:07.827Z,7.93
2022-12-31T03:52:34.663Z,2.43
2022-12-31T03:55:02.215Z,1.63
2022-12-31T03:57:29.076Z,0.70
2022-12-31T03:59:55.453Z,5.35
2022-12-31T04:02:28.077Z,0.47
2022-12-31T04:04:55.158Z,0.90
2022-12-31T04:07:21.597Z,2.38
2022-12-31T04:09:48.128Z,3.00
2022-12-31T04:12:14.571Z,0.82
2022-12-31T04:14:41.102Z,2.58
2022-12-31T04:17:07.679Z,2.27
2022-12-31T04:19:34.080Z,0.57
2022-12-31T04:22:00.584Z,1.00
2022-12-31T04:24:27.221Z,0.75
2022-12-31T04:26:53.595Z,1.50
2022-12-31T04:29:19.987Z,2.77
2022-12-31T04:31:46.367Z,2.28
2022-12-31T04:34:12.872Z,0.73
2022-12-31T04:36:39.575Z,1.02
2022-12-31T04:39:06.056Z,0.40
2022-12-31T04:41:32.504Z,1.37
2022-12-31T04:43:59.412Z,2.03
2022-12-31T04:46:29.471Z,1.08
2022-12-31T04:48:56.544Z,1.15
2022-12-31T04:51:23.473Z,0.52
2022-12-31T04:53:50.283Z,7.20
2022-12-31T04:56:17.300Z,2.10
2022-12-31T04:58:43.708Z,3.90
2022-12-31T05:01:10.841Z,1.90
2022-12-31T05:03:37.696Z,1.33
2022-12-31T05:06:15.988Z,1.20
2022-12-31T05:08:42.883Z,1.15
2022-12-31T05:11:09.967Z,3.75
2022-12-31T05:13:36.670Z,0.90
2022-12-31T05:16:03.751Z,2.15
2022-12-31T05:18:32.583Z,0.97
2022-12-31T05:20:59.018Z,0.85
2022-12-31T05:23:25.925Z,1.75
2022-12-31T05:25:52.763Z,1.40
2022-12-31T05:28:19.755Z,1.73
2022-12-31T05:30:49.907Z,1.13
2022-12-31T05:33:17.032Z,1.48
2022-12-31T05:35:44.329Z,1.05
2022-12-31T05:38:10.926Z,1.02
2022-12-31T05:40:37.372Z,1.52
2022-12-31T05:43:03.809Z,0.77
2022-12-31T05:45:31.237Z,1.73
2022-12-31T05:47:58.423Z,0.57
2022-12-31T05:50:25.020Z,1.35
2022-12-31T05:52:51.389Z,0.75
2022-12-31T05:55:17.770Z,1.00
2022-12-31T05:57:44.091Z,1.33
2022-12-31T06:00:11.048Z,1.10
2022-12-31T06:02:37.636Z,0.77
2022-12-31T06:05:04.890Z,1.30
2022-12-31T06:07:31.291Z,0.73
2022-12-31T06:09:57.666Z,0.40
2022-12-31T06:12:24.034Z,0.50
2022-12-31T06:14:50.437Z,0.55
2022-12-31T06:17:16.834Z,1.08
2022-12-31T06:19:43.165Z,0.20
2022-12-31T06:22:09.641Z,1.20
2022-12-31T06:24:36.013Z,0.45
2022-12-31T06:27:02.386Z,0.50
2022-12-31T06:29:28.702Z,1.77
2022-12-31T06:31:55.113Z,0.63
2022-12-31T06:34:21.505Z,1.38
2022-12-31T06:36:47.913Z,0.82
2022-12-31T06:39:14.327Z,0.93
2022-12-31T06:41:40.687Z,0.85
2022-12-31T06:44:07.104Z,0.93
2022-12-31T06:46:33.518Z,1.20
2022-12-31T06:48:59.840Z,0.70
2022-12-31T06:51:26.252Z,0.98
2022-12-31T06:53:52.746Z,2.20
2022-12-31T06:56:31.203Z,2.57
2022-12-31T06:59:00.061Z,1.38
2022-12-31T07:01:45.237Z,2.05
2022-12-31T07:04:26.768Z,4.70
2022-12-31T07:07:22.763Z,1.60
2022-12-31T07:10:13.515Z,0.97
2022-12-31T07:12:48.269Z,2.17
2022-12-31T07:15:19.271Z,0.30
2022-12-31T07:18:04.867Z,1.00
2022-12-31T07:20:31.551Z,1.50
2022-12-31T07:22:58.287Z,0.50
2022-12-31T07:25:25.012Z,0.50
2022-12-31T07:27:51.360Z,0.38
2022-12-31T07:30:25.063Z,0.15
2022-12-31T07:33:08.954Z,0.30
2022-12-31T07:35:53.800Z,0.20
2022-12-31T07:38:35.380Z,0.30
2022-12-31T07:41:10.284Z,0.73
2022-12-31T07:43:56.265Z,0.30
2022-12-31T07:46:48.659Z,0.28
2022-12-31T07:49:15.321Z,0.00
2022-12-31T07:51:42.810Z,0.43
2022-12-31T07:54:13.937Z,2.17
2022-12-31T07:56:41.801Z,0.15
2022-12-31T07:59:20.991Z,0.20
2022-12-31T08:02:00.614Z,0.37
2022-12-31T08:04:43.041Z,0.73
2022-12-31T08:07:31.787Z,0.70
2022-12-31T08:10:18.544Z,0.20
2022-12-31T08:12:49.471Z,0.40
2022-12-31T08:15:20.060Z,2.70
2022-12-31T08:17:48.592Z,0.30
2022-12-31T08:20:16.805Z,0.45
2022-12-31T08:23:02.021Z,0.82
2022-12-31T08:25:31.392Z,1.40
2022-12-31T08:28:23.964Z,0.60
2022-12-31T08:31:10.542Z,0.30
2022-12-31T08:34:00.708Z,0.28
2022-12-31T08:36:42.155Z,0.32
2022-12-31T08:39:08.477Z,0.43
2022-12-31T08:41:43.437Z,0.83
2022-12-31T08:44:30.469Z,0.63
2022-12-31T08:47:02.695Z,0.03
2022-12-31T08:49:32.293Z,0.20
2022-12-31T08:52:00.763Z,1.58
2022-12-31T08:54:28.466Z,0.93
2022-12-31T08:57:14.958Z,0.10
2022-12-31T09:00:02.716Z,1.48
2022-12-31T09:02:55.332Z,0.10
2022-12-31T09:05:25.946Z,1.33
2022-12-31T09:08:08.418Z,1.30
2022-12-31T09:11:04.173Z,1.23
2022-12-31T09:13:33.458Z,1.95
2022-12-31T09:16:18.175Z,1.90
2022-12-31T09:18:44.716Z,2.13
2022-12-31T09:21:13.960Z,2.63
2022-12-31T09:23:40.656Z,0.63
2022-12-31T09:26:15.103Z,1.67
2022-12-31T09:28:53.923Z,1.25
2022-12-31T09:31:36.524Z,2.25
2022-12-31T09:34:22.772Z,0.30
2022-12-31T09:36:54.593Z,2.38
2022-12-31T09:39:42.028Z,1.58
2022-12-31T09:42:29.529Z,2.40
2022-12-31T09:45:40.464Z,1.55
2022-12-31T09:48:31.179Z,1.53
2022-12-31T09:51:12.836Z,0.75
2022-12-31T09:53:47.385Z,2.05
2022-12-31T09:56:29.050Z,2.85
2022-12-31T09:59:02.899Z,1.95
2022-12-31T10:02:02.864Z,1.63
2022-12-31T10:05:07.445Z,1.33
2022-12-31T10:07:43.140Z,1.13
2022-12-31T10:10:18.044Z,0.30
2022-12-31T10:13:10.570Z,4.40
2022-12-31T10:16:14.405Z,1.90
2022-12-31T10:19:14.950Z,2.63
2022-12-31T10:22:15.630Z,1.48
2022-12-31T10:25:16.128Z,1.17
2022-12-31T10:27:51.656Z,2.83
2022-12-31T10:30:23.419Z,0.40
2022-12-31T10:33:08.521Z,1.80
2022-12-31T10:35:56.140Z,0.93
2022-12-31T10:38:34.175Z,0.60
2022-12-31T10:41:23.534Z,0.88
2022-12-31T10:44:21.435Z,1.50
2022-12-31T10:47:25.482Z,4.28
2022-12-31T10:50:33.550Z,5.63
2022-12-31T10:53:41.108Z,5.18
2022-12-31T10:56:45.185Z,2.17
2022-12-31T10:59:51.013Z,1.10
2022-12-31T11:02:29.540Z,2.15
2022-12-31T11:05:34.795Z,1.88
2022-12-31T11:08:22.356Z,0.60
2022-12-31T11:11:03.756Z,1.65
2022-12-31T11:14:09.827Z,2.40
2022-12-31T11:16:50.038Z,2.35
2022-12-31T11:19:43.978Z,4.38
2022-12-31T11:22:36.071Z,3.17
2022-12-31T11:25:27.891Z,2.50
2022-12-31T11:28:17.431Z,4.13
2022-12-31T11:31:13.164Z,2.17
2022-12-31T11:33:58.061Z,0.75
2022-12-31T11:36:41.738Z,3.28
2022-12-31T11:39:33.139Z,3.28
2022-12-31T11:42:22.563Z,1.57
2022-12-31T11:45:33.507Z,5.65
2022-12-31T11:48:31.589Z,4.07
2022-12-31T11:51:32.610Z,2.70
2022-12-31T11:54:38.681Z,1.02
2022-12-31T11:57:35.889Z,0.70
2022-12-31T12:00:13.620Z,4.60
2022-12-31T12:03:07.048Z,2.88
2022-12-31T12:05:35.180Z,1.38
2022-12-31T12:08:02.162Z,3.22
2022-12-31T12:10:50.901Z,2.50
2022-12-31T12:13:17.371Z,2.15
2022-12-31T12:15:50.865Z,3.92
2022-12-31T12:18:45.174Z,1.08
2022-12-31T12:21:21.453Z,4.28
2022-12-31T12:23:58.598Z,2.57
2022-12-31T12:26:37.925Z,2.05
2022-12-31T12:29:12.847Z,4.68
2022-12-31T12:31:39.554Z,2.45
2022-12-31T12:34:19.212Z,3.10
2022-12-31T12:36:47.409Z,2.63
2022-12-31T12:39:32.748Z,3.10
2022-12-31T12:42:13.930Z,1.30
2022-12-31T12:44:41.907Z,4.82
2022-12-31T12:47:15.687Z,2.38
2022-12-31T12:49:45.911Z,1.27
2022-12-31T12:52:24.422Z,6.30
2022-12-31T12:55:19.564Z,2.83
2022-12-31T12:57:52.095Z,2.45
2022-12-31T13:00:21.504Z,6.63
2022-12-31T13:03:12.783Z,2.63
2022-12-31T13:05:47.942Z,1.17
2022-12-31T13:08:20.224Z,2.50
2022-12-31T13:11:03.648Z,3.17
2022-12-31T13:14:14.481Z,1.95
2022-12-31T13:17:18.465Z,1.23
2022-12-31T13:20:08.856Z,2.03
2022-12-31T13:22:45.215Z,1.95
2022-12-31T13:25:38.449Z,4.07
2022-12-31T13:28:10.001Z,4.75
2022-12-31T13:30:41.260Z,1.63
2022-12-31T13:33:15.763Z,2.92
2022-12-31T13:35:48.161Z,4.07
2022-12-31T13:38:21.382Z,3.83
2022-12-31T13:41:03.566Z,2.00
2022-12-31T13:43:48.948Z,6.13
2022-12-31T13:46:34.054Z,2.10
2022-12-31T13:49:05.008Z,3.40
2022-12-31T13:51:40.763Z,2.88
2022-12-31T13:54:22.325Z,1.48
2022-12-31T13:56:51.015Z,2.17
2022-12-31T13:59:22.329Z,3.15
2022-12-31T14:02:01.709Z,2.40
2022-12-31T14:04:37.049Z,3.83
2022-12-31T14:07:21.581Z,2.70
2022-12-31T14:09:48.264Z,2.33
2022-12-31T14:12:29.826Z,2.35
2022-12-31T14:14:56.123Z,4.57
2022-12-31T14:17:48.353Z,2.70
2022-12-31T14:20:34.885Z,2.92
2022-12-31T14:23:16.427Z,1.90
2022-12-31T14:25:49.238Z,5.40
2022-12-31T14:28:19.928Z,1.75
2022-12-31T14:30:51.569Z,3.15
2022-12-31T14:33:42.280Z,1.95
2022-12-31T14:36:20.979Z,1.60
2022-12-31T14:38:56.820Z,3.55
2022-12-31T14:41:38.403Z,2.90
2022-12-31T14:44:33.939Z,1.33
2022-12-31T14:47:36.927Z,2.50
2022-12-31T14:50:12.741Z,1.20
2022-12-31T14:52:55.584Z,0.80
2022-12-31T14:55:28.194Z,2.97
2022-12-31T15:00:57.939Z,3.58
2022-12-31T15:03:44.991Z,2.13
2022-12-31T15:06:40.739Z,4.90
2022-12-31T15:10:04.441Z,3.05
2022-12-31T15:13:02.171Z,4.90
2022-12-31T15:15:49.781Z,4.13
2022-12-31T15:18:54.911Z,6.30
2022-12-31T15:21:36.572Z,3.63
2022-12-31T15:24:22.661Z,3.10
2022-12-31T15:26:52.761Z,9.70
2022-12-31T15:29:26.287Z,7.10
2022-12-31T15:31:53.883Z,7.63
2022-12-31T15:34:29.479Z,11.90
2022-12-31T15:36:59.057Z,14.45
2022-12-31T15:39:31.364Z,7.85
2022-12-31T15:44:56.474Z,7.57
2022-12-31T15:47:39.611Z,7.88
2022-12-31T15:50:13.433Z,12.30
2022-12-31T15:52:43.645Z,4.20
2022-12-31T15:55:22.768Z,5.55
2022-12-31T15:57:50.379Z,6.67
2022-12-31T16:00:20.473Z,5.88
2022-12-31T16:02:48.860Z,4.72
2022-12-31T16:05:27.823Z,5.50
2022-12-31T16:07:56.377Z,8.15
2022-12-31T16:10:27.217Z,4.20
2022-12-31T16:12:55.136Z,11.57
2022-12-31T16:15:24.911Z,12.07
2022-12-31T16:18:05.873Z,6.97
2022-12-31T16:20:34.629Z,6.40
2022-12-31T16:23:04.359Z,9.40
2022-12-31T16:25:33.541Z,7.88
2022-12-31T16:28:02.694Z,12.63
2022-12-31T16:30:31.332Z,7.93
2022-12-31T16:33:03.830Z,8.13
2022-12-31T16:35:32.769Z,11.63
2022-12-31T16:38:13.462Z,5.18
2022-12-31T16:40:42.575Z,7.75
2022-12-31T16:43:28.906Z,9.15
2022-12-31T16:45:58.139Z,3.42
2022-12-31T16:48:25.101Z,6.20
2022-12-31T16:50:54.375Z,4.45
2022-12-31T16:53:26.080Z,4.32
2022-12-31T16:56:10.618Z,8.93
2022-12-31T16:58:41.928Z,5.13
2022-12-31T17:01:20.510Z,6.33
2022-12-31T17:03:55.326Z,8.02
2022-12-31T17:06:22.114Z,2.35
2022-12-31T17:09:14.586Z,4.65
2022-12-31T17:11:50.303Z,4.57
2022-12-31T17:14:28.650Z,3.00
2022-12-31T17:17:03.210Z,10.18
2022-12-31T17:19:43.256Z,6.40
2022-12-31T17:22:37.449Z,4.85
2022-12-31T17:25:27.623Z,7.75
2022-12-31T17:28:00.550Z,6.63
2022-12-31T17:30:29.983Z,5.45
2022-12-31T17:33:13.100Z,2.67
2022-12-31T17:35:42.253Z,9.82
2022-12-31T17:38:18.282Z,4.38
2022-12-31T17:40:51.748Z,5.03
2022-12-31T17:43:23.598Z,4.32
2022-12-31T17:45:54.541Z,8.88
2022-12-31T17:48:24.447Z,8.77
2022-12-31T17:50:53.273Z,4.95
2022-12-31T17:53:20.714Z,4.20
2022-12-31T17:55:52.239Z,3.10
2022-12-31T17:58:36.501Z,3.50
2022-12-31T18:01:07.298Z,3.90
2022-12-31T18:03:33.893Z,3.50
2022-12-31T18:06:00.379Z,3.47
2022-12-31T18:08:26.976Z,3.47
2022-12-31T18:10:54.583Z,7.32
2022-12-31T18:13:23.972Z,4.85
2022-12-31T18:15:50.985Z,4.93
2022-12-31T18:18:26.254Z,1.77
2022-12-31T18:20:58.657Z,2.78
2022-12-31T18:23:38.063Z,4.18
2022-12-31T18:26:04.732Z,6.53
2022-12-31T18:28:31.119Z,7.80
2022-12-31T18:30:57.631Z,2.87
2022-12-31T18:33:25.635Z,9.77
2022-12-31T18:36:09.951Z,8.30
2022-12-31T18:38:36.771Z,2.90
2022-12-31T18:41:03.833Z,9.40
2022-12-31T18:43:30.193Z,4.07
2022-12-31T18:45:56.647Z,2.85
2022-12-31T18:48:23.374Z,4.95
2022-12-31T18:50:50.466Z,4.03
2022-12-31T18:53:21.072Z,3.35
2022-12-31T18:55:53.793Z,3.23
2022-12-31T18:58:20.582Z,4.05
2022-12-31T19:00:48.535Z,2.88
2022-12-31T19:03:20.882Z,6.22
2022-12-31T19:05:51.340Z,3.30
2022-12-31T19:08:19.088Z,4.20
2022-12-31T19:10:46.350Z,4.72
2022-12-31T19:13:14.163Z,7.05
2022-12-31T19:15:52.658Z,2.03
2022-12-31T19:18:19.214Z,3.75
2022-12-31T19:20:46.187Z,7.17
2022-12-31T19:23:18.163Z,4.22
2022-12-31T19:25:45.834Z,9.30
2022-12-31T19:28:24.240Z,6.90
2022-12-31T19:30:51.340Z,6.07
2022-12-31T19:33:18.592Z,1.67
2022-12-31T19:35:46.260Z,4.93
2022-12-31T19:38:17.604Z,4.25
2022-12-31T19:40:43.972Z,2.97
2022-12-31T19:43:15.012Z,4.22
2022-12-31T19:45:43.367Z,5.67
2022-12-31T19:48:15.208Z,3.33
2022-12-31T19:50:43.742Z,8.45
2022-12-31T19:53:22.457Z,2.53
2022-12-31T19:55:49.680Z,5.03
2022-12-31T19:58:25.449Z,3.77
2022-12-31T20:01:02.048Z,5.28
2022-12-31T20:03:31.535Z,6.88
2022-12-31T20:06:03.237Z,5.18
2022-12-31T20:08:29.788Z,6.18
2022-12-31T20:10:58.798Z,5.77
2022-12-31T20:13:28.331Z,5.65
2022-12-31T20:15:54.733Z,14.20
2022-12-31T20:18:22.864Z,3.40
2022-12-31T20:20:55.302Z,3.83
2022-12-31T20:23:22.307Z,7.40
2022-12-31T20:25:58.871Z,6.13
2022-12-31T20:28:25.352Z,5.47
2022-12-31T20:30:51.959Z,8.52
2022-12-31T20:33:19.326Z,9.50
2022-12-31T20:35:46.124Z,11.63
2022-12-31T20:38:12.447Z,3.63
2022-12-31T20:40:44.551Z,8.60
2022-12-31T20:43:12.962Z,5.30
2022-12-31T20:45:40.940Z,12.95
2022-12-31T20:48:07.357Z,4.47
2022-12-31T20:50:33.732Z,10.60
2022-12-31T20:53:00.139Z,10.13
2022-12-31T20:55:27.299Z,8.98
2022-12-31T20:57:53.702Z,7.75
2022-12-31T21:00:20.129Z,9.37
2022-12-31T21:02:53.162Z,8.88
2022-12-31T21:05:24.487Z,4.45
2022-12-31T21:07:51.024Z,4.35
2022-12-31T21:10:17.845Z,10.07
2022-12-31T21:12:44.233Z,2.43
2022-12-31T21:15:12.423Z,3.35
2022-12-31T21:17:38.816Z,4.05
2022-12-31T21:20:05.731Z,7.88
2022-12-31T21:22:33.657Z,4.32
2022-12-31T21:25:01.488Z,12.03
2022-12-31T21:27:29.357Z,9.70
2022-12-31T21:32:42.972Z,5.07
2022-12-31T21:37:58.923Z,8.47
2022-12-31T21:40:27.781Z,4.85
2022-12-31T21:42:54.159Z,8.90
2022-12-31T21:45:20.489Z,5.72
2022-12-31T21:48:05.413Z,4.90
2022-12-31T21:50:32.528Z,5.97
2022-12-31T21:52:58.936Z,6.55
2022-12-31T21:55:44.110Z,16.20
2022-12-31T21:58:27.776Z,4.18
2022-12-31T22:01:25.173Z,6.28
2022-12-31T22:03:51.813Z,10.30
2022-12-31T22:06:20.751Z,5.95
2022-12-31T22:08:49.604Z,9.98
2022-12-31T22:11:17.418Z,9.60
2022-12-31T22:13:44.509Z,7.43
2022-12-31T22:16:13.021Z,7.03
2022-12-31T22:18:42.784Z,5.95
2022-12-31T22:21:19.235Z,3.85
2022-12-31T22:23:48.583Z,4.03
2022-12-31T22:26:17.695Z,6.15
2022-12-31T22:28:45.367Z,3.47
2022-12-31T22:31:16.824Z,7.05
2022-12-31T22:33:43.853Z,6.47
2022-12-31T22:36:12.886Z,9.95
2022-12-31T22:38:39.431Z,9.75
2022-12-31T22:41:12.111Z,2.53
2022-12-31T22:43:41.218Z,9.35
2022-12-31T22:46:13.693Z,4.07
2022-12-31T22:48:40.956Z,5.63
2022-12-31T22:51:08.648Z,8.65
2022-12-31T22:53:35.377Z,4.70
2022-12-31T22:56:01.897Z,3.20
2022-12-31T22:58:28.257Z,8.43
2022-12-31T23:00:54.636Z,8.85
2022-12-31T23:03:21.111Z,3.08
2022-12-31T23:05:51.803Z,10.13
2022-12-31T23:08:23.096Z,7.22
2022-12-31T23:11:05.255Z,6.25
2022-12-31T23:13:58.628Z,8.27
2022-12-31T23:16:45.792Z,7.80
2022-12-31T23:19:31.485Z,4.57
2022-12-31T23:22:16.983Z,10.82
2022-12-31T23:24:43.386Z,6.20
2022-12-31T23:27:10.868Z,7.28
2022-12-31T23:29:46.063Z,10.02
2022-12-31T23:32:13.732Z,8.27
2022-12-31T23:34:40.152Z,9.82
2022-12-31T23:37:06.560Z,7.20
2022-12-31T23:39:32.918Z,11.98
2022-12-31T23:42:00.208Z,6.15
2022-12-31T23:44:27.652Z,10.53
2022-12-31T23:46:54.564Z,10.52
2022-12-31T23:49:22.256Z,8.50
2022-12-31T23:51:48.757Z,5.70
2022-12-31T23:54:15.918Z,9.75
2022-12-31T23:56:42.449Z,7.70
2022-12-31T23:59:10.728Z,12.80
